Time;durP1;ratioP1;P1;durP2;ratioP2;P2;SDS_P1;SDS_P2;PMS_P1;PMS_P2;Temp;Humidity;BMP_temperature;BMP_pressure;BME280_temperature;BME280_humidity;BME280_pressure;Samples;Min_cycle;Max_cycle;Signal;HPM_P1;HPM_P2
2021/01/01 00:00:14;;;;;;;92.25;43.42;;;5.30;99.90;;;;;;5058692;28;20155;-84
2021/01/01 00:02:39;;;;;;;82.97;41.88;;;5.30;99.90;;;;;;5058487;28;20028;-84
2021/01/01 00:05:06;;;;;;;69.28;36.47;;;5.20;99.90;;;;;;5061633;28;20031;-84
2021/01/01 00:07:31;;;;;;;73.35;37.90;;;5.30;99.90;;;;;;5066506;28;20648;-83
2021/01/01 00:09:57;;;;;;;77.40;41.92;;;5.20;99.90;;;;;;5053344;28;20056;-84
2021/01/01 00:12:22;;;;;;;68.85;36.47;;;5.10;99.90;;;;;;5062320;28;20375;-83
2021/01/01 00:14:47;;;;;;;66.05;35.50;;;5.20;99.90;;;;;;5061764;28;20086;-83
2021/01/01 00:17:13;;;;;;;68.95;33.28;;;5.20;99.90;;;;;;5061144;28;20039;-84
2021/01/01 00:19:38;;;;;;;64.53;31.95;;;5.10;99.90;;;;;;5065585;28;20602;-83
2021/01/01 00:22:10;;;;;;;59.47;33.15;;;5.20;99.90;;;;;;5055831;28;20039;-83
2021/01/01 00:24:35;;;;;;;75.90;36.40;;;5.20;99.90;;;;;;5054894;28;20412;-83
2021/01/01 00:27:01;;;;;;;58.22;32.40;;;5.20;99.90;;;;;;5065837;28;20044;-83
2021/01/01 00:29:26;;;;;;;58.85;30.63;;;5.20;99.90;;;;;;5068234;28;20021;-83
2021/01/01 00:31:52;;;;;;;62.13;31.38;;;5.30;99.90;;;;;;5066471;28;20028;-83
2021/01/01 00:34:17;;;;;;;62.88;32.60;;;5.30;99.90;;;;;;5065756;28;20024;-83
2021/01/01 00:36:43;;;;;;;72.03;34.78;;;5.30;99.90;;;;;;5062435;28;20020;-83
2021/01/01 00:39:08;;;;;;;80.22;37.35;;;5.30;99.90;;;;;;5052937;28;20032;-83
2021/01/01 00:41:34;;;;;;;70.97;38.00;;;5.20;99.90;;;;;;5057655;28;20025;-83
2021/01/01 00:43:59;;;;;;;80.25;41.03;;;5.30;99.90;;;;;;5056239;28;20497;-83
2021/01/01 00:46:26;;;;;;;78.50;40.72;;;5.30;99.90;;;;;;5053479;28;20090;-83
2021/01/01 00:48:58;;;;;;;80.82;40.33;;;5.30;99.90;;;;;;5062620;28;20036;-83
2021/01/01 00:51:27;;;;;;;82.03;40.63;;;5.30;99.90;;;;;;5056724;28;20502;-83
2021/01/01 00:53:53;;;;;;;79.93;41.15;;;5.30;99.90;;;;;;5059257;28;20399;-83
2021/01/01 00:56:22;;;;;;;76.07;40.15;;;5.20;99.90;;;;;;5055094;28;20023;-82
2021/01/01 00:58:50;;;;;;;84.40;42.17;;;5.20;99.90;;;;;;5057626;28;20482;-86
2021/01/01 01:01:24;;;;;;;91.90;45.03;;;5.20;99.90;;;;;;5060092;28;20104;-90
2021/01/01 01:03:50;;;;;;;108.15;51.05;;;5.20;99.90;;;;;;5056905;28;20049;-87
2021/01/01 01:06:16;;;;;;;91.97;45.50;;;5.10;99.90;;;;;;5058767;28;20078;-88
2021/01/01 01:08:42;;;;;;;96.63;47.67;;;5.20;99.90;;;;;;5059217;28;20373;-86
2021/01/01 01:11:07;;;;;;;92.28;44.28;;;5.10;99.90;;;;;;5055269;28;20021;-86
2021/01/01 01:13:33;;;;;;;93.25;44.15;;;5.20;99.90;;;;;;5056314;28;20036;-86
2021/01/01 01:15:58;;;;;;;95.18;43.35;;;5.20;99.90;;;;;;5064496;28;20036;-88
2021/01/01 01:18:24;;;;;;;85.10;42.88;;;5.10;99.90;;;;;;5061014;28;20076;-87
2021/01/01 01:20:49;;;;;;;87.88;41.45;;;5.10;99.90;;;;;;5054279;28;20048;-88
2021/01/01 01:23:15;;;;;;;85.03;40.30;;;5.10;99.90;;;;;;5064354;28;20383;-86
2021/01/01 01:25:40;;;;;;;91.88;41.97;;;5.20;99.90;;;;;;5064388;28;20490;-87
2021/01/01 01:28:06;;;;;;;88.38;41.25;;;5.30;99.90;;;;;;5064280;28;20025;-87
2021/01/01 01:30:31;;;;;;;89.50;44.22;;;5.20;99.90;;;;;;5053056;28;20438;-87
2021/01/01 01:32:57;;;;;;;89.72;43.05;;;5.10;99.90;;;;;;5052029;28;20146;-86
2021/01/01 01:35:22;;;;;;;89.15;41.80;;;5.10;99.90;;;;;;5055518;28;20021;-87
2021/01/01 01:37:48;;;;;;;89.45;44.25;;;5.20;99.90;;;;;;5066509;28;20029;-87
2021/01/01 01:40:14;;;;;;;88.07;41.17;;;5.20;99.90;;;;;;5064057;28;20110;-88
2021/01/01 01:42:39;;;;;;;84.35;42.63;;;5.10;99.90;;;;;;5063660;28;20059;-89
2021/01/01 01:45:07;;;;;;;82.90;42.33;;;5.20;99.90;;;;;;5061198;28;20025;-88
2021/01/01 01:47:33;;;;;;;88.72;42.90;;;5.10;99.90;;;;;;5070000;28;20044;-88
2021/01/01 01:49:59;;;;;;;90.53;43.55;;;5.10;99.90;;;;;;5067751;28;20740;-89
2021/01/01 01:52:24;;;;;;;91.65;42.85;;;5.10;99.90;;;;;;5050499;28;20040;-88
2021/01/01 01:54:53;;;;;;;93.60;44.67;;;5.20;99.90;;;;;;5053140;28;20027;-87
2021/01/01 01:57:19;;;;;;;102.70;45.50;;;5.20;99.90;;;;;;5054823;28;20036;-87
2021/01/01 01:59:48;;;;;;;91.82;43.65;;;5.20;99.90;;;;;;5060475;28;20050;-88
2021/01/01 02:02:13;;;;;;;90.80;42.95;;;5.10;99.90;;;;;;5061942;28;20040;-88
2021/01/01 02:04:39;;;;;;;82.72;40.83;;;5.10;99.90;;;;;;5058732;28;20029;-89
2021/01/01 02:07:05;;;;;;;89.03;41.92;;;5.10;99.90;;;;;;5062847;28;20052;-89
2021/01/01 02:09:30;;;;;;;84.88;43.28;;;5.10;99.90;;;;;;5055015;28;20029;-88
2021/01/01 02:11:56;;;;;;;90.00;42.05;;;5.10;99.90;;;;;;5061968;28;20100;-88
2021/01/01 02:14:21;;;;;;;81.85;41.22;;;5.10;99.90;;;;;;5056422;28;20369;-87
2021/01/01 02:16:48;;;;;;;83.93;40.88;;;5.10;99.90;;;;;;5056627;28;20031;-88
2021/01/01 02:19:13;;;;;;;77.68;38.97;;;5.00;99.90;;;;;;5061393;28;20021;-88
2021/01/01 02:21:41;;;;;;;76.95;37.92;;;5.00;99.90;;;;;;5057929;28;20566;-88
2021/01/01 02:24:08;;;;;;;77.63;38.55;;;5.00;99.90;;;;;;5062630;28;20024;-89
2021/01/01 02:26:33;;;;;;;80.75;38.15;;;5.00;99.90;;;;;;5057494;28;20033;-88
2021/01/01 02:28:59;;;;;;;77.13;38.60;;;5.00;99.90;;;;;;5050122;28;20112;-89
2021/01/01 02:31:24;;;;;;;78.22;38.17;;;5.00;99.90;;;;;;5051526;28;20033;-89
2021/01/01 02:33:50;;;;;;;74.07;36.33;;;5.10;99.90;;;;;;5064014;28;20070;-88
2021/01/01 02:36:15;;;;;;;75.97;35.13;;;5.10;99.90;;;;;;5060619;28;20250;-87
2021/01/01 02:38:42;;;;;;;71.28;36.53;;;5.10;99.90;;;;;;5057485;28;20024;-88
2021/01/01 02:41:07;;;;;;;67.90;33.10;;;5.10;99.90;;;;;;5052585;28;20681;-88
2021/01/01 02:43:33;;;;;;;68.82;34.92;;;5.00;99.90;;;;;;5062497;28;20104;-88
2021/01/01 02:45:58;;;;;;;69.05;33.97;;;5.10;99.90;;;;;;5054881;28;20060;-88
2021/01/01 02:48:23;;;;;;;66.53;33.53;;;5.10;99.90;;;;;;5055780;28;20033;-89
2021/01/01 02:50:49;;;;;;;65.50;35.35;;;5.10;99.90;;;;;;5052427;28;20033;-87
2021/01/01 02:53:15;;;;;;;72.40;35.08;;;5.10;99.90;;;;;;5061843;28;20039;-88
2021/01/01 02:55:40;;;;;;;64.53;32.33;;;5.00;99.90;;;;;;5065323;28;20824;-89
2021/01/01 02:58:07;;;;;;;70.72;32.88;;;5.00;99.90;;;;;;5068412;28;20099;-88
2021/01/01 03:00:35;;;;;;;67.80;31.55;;;5.00;99.90;;;;;;5053994;28;20097;-87
2021/01/01 03:03:00;;;;;;;67.72;32.83;;;4.90;99.90;;;;;;5057243;28;20028;-88
2021/01/01 03:05:26;;;;;;;64.90;31.50;;;4.90;99.90;;;;;;5064257;28;20032;-86
2021/01/01 03:07:51;;;;;;;69.55;33.38;;;5.00;99.90;;;;;;5055509;28;20029;-89
2021/01/01 03:10:18;;;;;;;81.40;38.05;;;4.90;99.90;;;;;;5060896;28;20036;-88
2021/01/01 03:12:44;;;;;;;67.45;33.00;;;4.90;99.90;;;;;;5064305;28;20394;-88
2021/01/01 03:15:10;;;;;;;72.00;35.83;;;4.90;99.90;;;;;;5051087;28;20116;-89
2021/01/01 03:17:35;;;;;;;73.30;37.13;;;4.80;99.90;;;;;;5053667;28;20134;-88
2021/01/01 03:20:01;;;;;;;68.35;35.58;;;4.80;99.90;;;;;;5063230;28;20064;-88
2021/01/01 03:22:26;;;;;;;64.57;32.78;;;4.90;99.90;;;;;;5064625;28;20567;-89
2021/01/01 03:24:52;;;;;;;61.33;30.35;;;4.90;99.90;;;;;;5059571;28;20042;-89
2021/01/01 03:27:17;;;;;;;60.97;30.38;;;4.90;99.90;;;;;;5066907;28;20031;-88
2021/01/01 03:29:43;;;;;;;59.75;31.05;;;5.00;99.90;;;;;;5063816;28;20039;-88
2021/01/01 03:32:08;;;;;;;63.33;31.17;;;4.80;99.90;;;;;;5055347;28;20398;-89
2021/01/01 03:34:34;;;;;;;64.60;29.70;;;4.70;99.90;;;;;;5053137;28;21652;-89
2021/01/01 03:36:59;;;;;;;60.97;29.83;;;4.70;99.90;;;;;;5069307;28;20021;-88
2021/01/01 03:39:25;;;;;;;60.08;29.13;;;4.70;99.90;;;;;;5057515;28;20078;-89
2021/01/01 03:41:50;;;;;;;56.45;27.48;;;4.70;99.90;;;;;;5065826;28;20430;-88
2021/01/01 03:44:15;;;;;;;53.00;27.33;;;4.70;99.90;;;;;;5063652;28;20024;-89
2021/01/01 03:46:41;;;;;;;48.72;25.90;;;4.80;99.90;;;;;;5058077;28;20078;-88
2021/01/01 03:49:06;;;;;;;54.80;27.00;;;4.90;99.90;;;;;;5054475;28;20017;-88
2021/01/01 03:51:32;;;;;;;54.17;26.33;;;4.90;99.90;;;;;;5054200;28;20083;-88
2021/01/01 03:53:57;;;;;;;50.78;26.85;;;4.90;99.90;;;;;;5053056;28;20120;-89
2021/01/01 03:56:23;;;;;;;55.53;26.50;;;4.80;99.90;;;;;;5067667;28;20418;-88
2021/01/01 03:58:48;;;;;;;48.97;24.40;;;4.80;99.90;;;;;;5051968;28;20025;-89
2021/01/01 04:01:17;;;;;;;40.63;22.65;;;4.90;99.90;;;;;;5060831;28;20475;-89
2021/01/01 04:03:43;;;;;;;54.13;24.40;;;4.90;99.90;;;;;;5056602;28;20055;-89
2021/01/01 04:06:09;;;;;;;43.03;21.67;;;4.80;99.90;;;;;;5058188;28;20056;-90
2021/01/01 04:08:34;;;;;;;47.13;22.30;;;4.80;99.90;;;;;;5052998;28;20040;-88
2021/01/01 04:11:00;;;;;;;44.42;21.35;;;4.80;99.90;;;;;;5055703;28;20024;-88
2021/01/01 04:13:25;;;;;;;40.08;20.77;;;4.90;99.90;;;;;;5066671;28;20104;-88
2021/01/01 04:15:51;;;;;;;38.20;21.25;;;4.80;99.90;;;;;;5057700;28;20395;-88
2021/01/01 04:18:16;;;;;;;43.88;20.20;;;5.00;99.90;;;;;;5056880;28;20360;-88
2021/01/01 04:20:42;;;;;;;42.45;21.00;;;4.90;99.90;;;;;;5051082;28;20040;-88
2021/01/01 04:23:08;;;;;;;38.42;19.92;;;4.90;99.90;;;;;;5069750;28;20041;-89
2021/01/01 04:25:34;;;;;;;40.83;19.63;;;4.90;99.90;;;;;;5068918;28;20383;-89
2021/01/01 04:27:59;;;;;;;36.10;19.17;;;4.80;99.90;;;;;;5064061;28;20505;-89
2021/01/01 04:30:25;;;;;;;41.47;19.67;;;4.90;99.90;;;;;;5063626;28;20025;-88
2021/01/01 04:32:50;;;;;;;36.55;19.67;;;5.00;99.90;;;;;;5055802;28;20501;-89
2021/01/01 04:35:16;;;;;;;38.22;18.42;;;4.90;99.90;;;;;;5064320;28;20029;-89
2021/01/01 04:37:41;;;;;;;37.22;18.95;;;4.80;99.90;;;;;;5064768;28;20116;-88
2021/01/01 04:40:07;;;;;;;41.67;18.85;;;4.80;99.90;;;;;;5067442;28;20529;-89
2021/01/01 04:42:33;;;;;;;34.22;18.40;;;4.80;99.90;;;;;;5066257;28;20417;-89
2021/01/01 04:44:58;;;;;;;36.08;18.67;;;4.80;99.90;;;;;;5067048;28;20024;-88
2021/01/01 04:47:26;;;;;;;37.15;18.88;;;4.70;99.90;;;;;;5058508;28;20028;-87
2021/01/01 04:49:51;;;;;;;34.97;19.10;;;4.80;99.90;;;;;;5065366;28;20028;-87
2021/01/01 04:52:17;;;;;;;37.65;18.67;;;4.70;99.90;;;;;;5063666;28;20115;-88
2021/01/01 04:54:45;;;;;;;35.95;17.90;;;4.90;99.90;;;;;;5057950;28;20033;-89
2021/01/01 04:57:12;;;;;;;36.78;18.00;;;4.80;99.90;;;;;;5061446;28;20484;-88
2021/01/01 04:59:37;;;;;;;35.00;18.67;;;4.90;99.90;;;;;;5070120;28;20029;-88
2021/01/01 05:02:03;;;;;;;36.78;18.75;;;4.80;99.90;;;;;;5066041;28;20037;-88
2021/01/01 05:04:28;;;;;;;34.28;17.75;;;4.90;99.90;;;;;;5056279;28;20027;-88
2021/01/01 05:06:55;;;;;;;32.53;17.52;;;4.80;99.90;;;;;;5068124;28;20040;-87
2021/01/01 05:09:21;;;;;;;30.77;16.75;;;4.90;99.90;;;;;;5056332;28;20036;-89
2021/01/01 05:11:46;;;;;;;32.50;17.70;;;4.80;99.90;;;;;;5058750;28;20020;-89
2021/01/01 05:14:12;;;;;;;34.53;17.00;;;4.80;99.90;;;;;;5059069;28;20073;-91
2021/01/01 05:16:37;;;;;;;32.70;16.83;;;4.90;99.90;;;;;;5062301;28;20496;-89
2021/01/01 05:19:10;;;;;;;29.67;16.67;;;4.90;99.90;;;;;;5065553;28;20028;-90
2021/01/01 05:21:35;;;;;;;32.53;16.42;;;4.90;99.90;;;;;;5067638;28;20036;-90
2021/01/01 05:24:04;;;;;;;36.78;17.88;;;5.00;99.90;;;;;;5062142;28;20016;-89
2021/01/01 05:26:30;;;;;;;30.65;17.15;;;4.90;99.90;;;;;;5060488;28;20150;-89
2021/01/01 05:29:07;;;;;;;31.67;16.33;;;4.90;99.90;;;;;;5066609;28;20107;-90
2021/01/01 05:31:38;;;;;;;29.80;16.20;;;4.90;99.90;;;;;;5060266;28;20471;-90
2021/01/01 05:34:08;;;;;;;30.00;15.88;;;4.90;99.90;;;;;;5063840;28;20033;-91
2021/01/01 05:36:40;;;;;;;32.60;17.13;;;4.90;99.90;;;;;;5060656;28;20025;-91
2021/01/01 05:39:06;;;;;;;;;;;4.90;99.90;;;;;;5066223;28;20021;-91
2021/01/01 05:41:38;;;;;;;31.02;14.35;;;4.80;99.90;;;;;;5063817;28;20321;-91
2021/01/01 05:44:07;;;;;;;;;;;4.80;99.90;;;;;;5058967;28;20107;-90
2021/01/01 05:46:33;;;;;;;31.17;15.85;;;4.90;99.90;;;;;;5063216;28;20034;-90
2021/01/01 05:49:02;;;;;;;31.02;16.40;;;5.00;99.90;;;;;;5066001;28;20104;-90
2021/01/01 05:51:28;;;;;;;31.17;16.23;;;5.00;99.90;;;;;;5068284;28;20167;-91
2021/01/01 05:54:10;;;;;;;33.33;16.77;;;5.00;99.90;;;;;;5057151;28;20479;-91
2021/01/01 05:56:39;;;;;;;31.80;16.70;;;4.80;99.90;;;;;;5061875;28;20028;-89
2021/01/01 05:59:08;;;;;;;27.33;15.45;;;4.70;99.90;;;;;;5061069;28;20028;-90
2021/01/01 06:01:35;;;;;;;33.50;16.05;;;4.80;99.90;;;;;;5062914;28;20029;-90
2021/01/01 06:04:03;;;;;;;33.08;16.65;;;4.80;99.90;;;;;;5053154;28;20108;-90
2021/01/01 06:06:32;;;;;;;33.92;16.63;;;4.80;99.90;;;;;;5062326;28;20029;-89
2021/01/01 06:09:03;;;;;;;26.02;15.13;;;4.80;99.90;;;;;;5061317;28;20060;-89
2021/01/01 06:11:34;;;;;;;30.98;17.30;;;4.70;99.90;;;;;;5055436;28;20036;-88
2021/01/01 06:14:06;;;;;;;28.63;15.05;;;4.80;99.90;;;;;;5064587;28;20526;-90
2021/01/01 06:16:45;;;;;;;30.70;16.17;;;4.70;99.90;;;;;;5052933;28;20045;-89
2021/01/01 06:19:12;;;;;;;29.88;16.27;;;4.90;99.90;;;;;;5058509;28;20035;-91
2021/01/01 06:21:43;;;;;;;31.55;15.25;;;4.90;99.90;;;;;;5062808;28;20053;-91
2021/01/01 06:24:19;;;;;;;30.38;16.67;;;4.80;99.90;;;;;;5069315;28;20398;-92
2021/01/01 06:26:45;;;;;;;33.03;16.35;;;4.90;99.90;;;;;;5061796;28;20025;-89
2021/01/01 06:29:16;;;;;;;31.85;17.05;;;4.90;99.90;;;;;;5065645;28;20467;-91
2021/01/01 06:31:43;;;;;;;;;;;4.90;99.90;;;;;;5060634;28;20028;-91
2021/01/01 06:34:28;;;;;;;29.33;16.38;;;4.90;99.90;;;;;;5059547;28;19912;-90
2021/01/01 06:36:54;;;;;;;34.67;17.90;;;4.90;99.90;;;;;;5065990;28;20040;-88
2021/01/01 06:39:37;;;;;;;34.92;18.08;;;4.90;99.90;;;;;;5065159;28;20036;-90
2021/01/01 06:42:03;;;;;;;30.63;16.63;;;4.80;99.90;;;;;;5061049;28;20031;-90
2021/01/01 06:44:39;;;;;;;30.23;15.75;;;4.80;99.90;;;;;;5060057;28;20094;-89
2021/01/01 06:47:40;;;;;;;32.83;16.88;;;4.80;99.90;;;;;;5063649;28;20857;-90
2021/01/01 06:50:29;;;;;;;32.42;15.82;;;4.80;99.90;;;;;;5055311;28;20029;-90
2021/01/01 06:53:06;;;;;;;29.30;16.45;;;4.80;99.90;;;;;;5066301;28;20028;-91
2021/01/01 06:55:33;;;;;;;31.15;16.90;;;4.80;99.90;;;;;;5052349;28;20029;-91
2021/01/01 06:57:58;;;;;;;34.17;17.80;;;4.80;99.90;;;;;;5062935;28;20024;-90
2021/01/01 07:00:49;;;;;;;30.73;16.40;;;4.80;99.90;;;;;;5057502;28;20490;-91
2021/01/01 07:03:35;;;;;;;34.55;16.92;;;4.70;99.90;;;;;;5068047;28;20038;-91
2021/01/01 07:06:01;;;;;;;31.85;15.95;;;4.70;99.90;;;;;;5063068;28;20025;-91
2021/01/01 07:08:42;;;;;;;40.65;17.55;;;4.70;99.90;;;;;;5057361;28;20082;-90
2021/01/01 07:11:13;;;;;;;33.73;17.20;;;4.70;99.90;;;;;;5060840;28;20510;-90
2021/01/01 07:13:48;;;;;;;28.52;16.23;;;4.70;99.90;;;;;;5059445;28;20340;-91
2021/01/01 07:16:15;;;;;;;30.65;16.42;;;4.70;99.90;;;;;;5055133;28;20376;-89
2021/01/01 07:18:41;;;;;;;32.08;16.13;;;4.70;99.90;;;;;;5052362;28;20074;-90
2021/01/01 07:21:09;;;;;;;30.50;16.67;;;4.70;99.90;;;;;;5063064;28;20045;-89
2021/01/01 07:23:35;;;;;;;30.58;16.55;;;4.60;99.90;;;;;;5060737;28;20028;-89
2021/01/01 07:26:02;;;;;;;30.38;16.73;;;4.60;99.90;;;;;;5063516;28;20032;-89
2021/01/01 07:28:28;;;;;;;32.38;17.70;;;4.60;99.90;;;;;;5054337;28;20264;-89
2021/01/01 07:30:54;;;;;;;37.25;17.42;;;4.60;99.90;;;;;;5066407;28;20035;-90
2021/01/01 07:33:27;;;;;;;30.45;16.98;;;4.60;99.90;;;;;;5063004;28;20023;-89
2021/01/01 07:35:57;;;;;;;34.35;17.42;;;4.60;99.90;;;;;;5055246;28;20475;-89
2021/01/01 07:38:24;;;;;;;33.80;17.70;;;4.40;99.90;;;;;;5052915;28;20021;-89
2021/01/01 07:40:50;;;;;;;34.72;17.35;;;4.50;99.90;;;;;;5063778;28;20120;-89
2021/01/01 07:43:16;;;;;;;32.25;17.77;;;4.50;99.90;;;;;;5060265;28;20159;-89
2021/01/01 07:45:42;;;;;;;33.90;17.48;;;4.50;99.90;;;;;;5055796;28;20037;-90
2021/01/01 07:48:08;;;;;;;32.78;17.92;;;4.40;99.90;;;;;;5059168;28;20043;-90
2021/01/01 07:50:34;;;;;;;32.10;18.02;;;4.40;99.90;;;;;;5057977;28;20036;-90
2021/01/01 07:53:09;;;;;;;32.22;18.08;;;4.40;99.90;;;;;;5060156;28;20029;-90
2021/01/01 07:55:35;;;;;;;36.65;18.80;;;4.50;99.90;;;;;;5059797;28;20032;-90
2021/01/01 07:58:09;;;;;;;36.78;19.27;;;4.50;99.90;;;;;;5058184;28;20108;-90
2021/01/01 08:00:37;;;;;;;35.50;17.80;;;4.60;99.90;;;;;;5060427;28;20031;-90
2021/01/01 08:03:03;;;;;;;34.33;17.65;;;4.60;99.90;;;;;;5060719;28;20434;-88
2021/01/01 08:05:29;;;;;;;35.45;18.08;;;4.60;99.90;;;;;;5060503;28;20032;-89
2021/01/01 08:07:54;;;;;;;34.80;18.33;;;4.60;99.90;;;;;;5060830;28;20103;-88
2021/01/01 08:10:34;;;;;;;37.00;18.30;;;4.60;99.90;;;;;;5054892;28;20055;-89
2021/01/01 08:12:59;;;;;;;35.38;17.73;;;4.60;99.90;;;;;;5057206;28;20021;-88
2021/01/01 08:15:28;;;;;;;34.90;18.50;;;4.70;99.90;;;;;;5069255;28;20031;-89
2021/01/01 08:17:54;;;;;;;32.65;18.02;;;4.60;99.90;;;;;;5058825;28;20253;-90
2021/01/01 08:20:19;;;;;;;33.83;18.25;;;4.60;99.90;;;;;;5055419;28;20041;-89
2021/01/01 08:22:48;;;;;;;38.92;19.50;;;4.60;99.90;;;;;;5058090;28;20029;-89
2021/01/01 08:25:16;;;;;;;34.17;17.27;;;4.70;99.90;;;;;;5065684;28;20035;-89
2021/01/01 08:27:43;;;;;;;34.15;19.27;;;4.60;99.90;;;;;;5063818;28;20120;-89
2021/01/01 08:30:09;;;;;;;35.03;17.45;;;4.70;99.90;;;;;;5065866;28;20033;-89
2021/01/01 08:32:36;;;;;;;32.28;18.30;;;4.70;99.90;;;;;;5066900;28;20401;-90
2021/01/01 08:35:02;;;;;;;37.60;18.13;;;4.70;99.90;;;;;;5065358;28;20111;-88
2021/01/01 08:37:28;;;;;;;31.52;17.88;;;4.80;99.90;;;;;;5067579;28;20041;-89
2021/01/01 08:40:02;;;;;;;33.22;17.55;;;4.80;99.90;;;;;;5053607;28;20452;-88
2021/01/01 08:42:39;;;;;;;35.25;18.30;;;4.90;99.90;;;;;;5067866;28;20090;-90
2021/01/01 08:45:10;;;;;;;34.33;17.73;;;4.90;99.90;;;;;;5064059;28;20029;-89
2021/01/01 08:47:48;;;;;;;35.85;17.65;;;4.80;99.90;;;;;;5065916;28;20562;-88
2021/01/01 08:50:22;;;;;;;31.00;16.10;;;4.90;99.90;;;;;;5060728;28;20490;-89
2021/01/01 08:52:50;;;;;;;34.15;17.13;;;5.00;99.90;;;;;;5063798;28;20024;-88
2021/01/01 08:55:16;;;;;;;34.03;17.48;;;4.90;99.90;;;;;;5061563;28;20040;-88
2021/01/01 08:57:41;;;;;;;37.22;17.58;;;5.10;99.90;;;;;;5059005;28;21141;-89
2021/01/01 09:00:08;;;;;;;30.90;17.08;;;5.00;99.90;;;;;;5067503;28;20028;-88
2021/01/01 09:02:37;;;;;;;32.78;17.42;;;5.00;99.90;;;;;;5056795;28;20491;-88
2021/01/01 09:05:05;;;;;;;30.13;16.25;;;5.00;99.90;;;;;;5065645;28;20040;-89
2021/01/01 09:07:31;;;;;;;34.80;17.77;;;5.00;99.90;;;;;;5051014;28;20516;-82
2021/01/01 09:09:57;;;;;;;37.10;18.27;;;5.00;99.90;;;;;;5052394;28;20041;-80
2021/01/01 09:12:27;;;;;;;32.97;16.55;;;5.00;99.90;;;;;;5053727;28;20029;-80
2021/01/01 09:14:57;;;;;;;29.13;15.68;;;5.00;99.90;;;;;;5051821;28;20087;-80
2021/01/01 09:17:24;;;;;;;31.77;15.83;;;5.10;99.90;;;;;;5061813;28;20013;-80
2021/01/01 09:20:00;;;;;;;29.35;15.10;;;5.00;99.90;;;;;;5060195;28;20313;-80
2021/01/01 09:22:31;;;;;;;27.40;15.07;;;5.10;99.90;;;;;;5067190;28;20081;-81
2021/01/01 09:24:56;;;;;;;28.80;15.15;;;5.10;99.90;;;;;;5057209;28;20032;-81
2021/01/01 09:27:22;;;;;;;27.30;15.75;;;5.20;99.90;;;;;;5061863;28;20025;-82
2021/01/01 09:29:47;;;;;;;27.58;15.25;;;5.20;99.90;;;;;;5062947;28;20032;-80
2021/01/01 09:32:13;;;;;;;32.28;15.35;;;5.20;99.90;;;;;;5068927;28;20077;-81
2021/01/01 09:34:39;;;;;;;29.00;15.13;;;5.30;99.90;;;;;;5051424;28;20032;-80
2021/01/01 09:37:09;;;;;;;33.00;16.42;;;5.10;99.90;;;;;;5066585;28;20052;-80
2021/01/01 09:39:38;;;;;;;30.23;15.38;;;5.20;99.90;;;;;;5063689;28;20395;-80
2021/01/01 09:42:04;;;;;;;27.00;14.70;;;5.10;99.90;;;;;;5062240;28;20016;-80
2021/01/01 09:44:29;;;;;;;28.23;15.35;;;5.10;99.90;;;;;;5067693;28;20494;-80
2021/01/01 09:46:55;;;;;;;31.35;15.52;;;5.10;99.90;;;;;;5061143;28;20036;-80
2021/01/01 09:49:20;;;;;;;29.27;15.65;;;5.20;99.90;;;;;;5051257;28;20032;-79
2021/01/01 09:51:46;;;;;;;30.33;15.57;;;5.20;99.90;;;;;;5059720;28;20379;-79
2021/01/01 09:54:11;;;;;;;28.85;15.85;;;5.20;99.90;;;;;;5050492;28;20090;-81
2021/01/01 09:56:37;;;;;;;33.05;15.93;;;5.20;99.90;;;;;;5052402;28;20021;-79
2021/01/01 09:59:04;;;;;;;31.23;15.80;;;5.20;99.90;;;;;;5063492;28;20497;-79
2021/01/01 10:01:30;;;;;;;30.88;15.80;;;5.20;99.90;;;;;;5068762;28;20094;-79
2021/01/01 10:03:56;;;;;;;32.47;16.27;;;5.20;99.90;;;;;;5053180;28;20699;-77
2021/01/01 10:06:22;;;;;;;31.85;15.75;;;5.20;99.90;;;;;;5056895;28;20040;-78
2021/01/01 10:08:47;;;;;;;29.95;15.50;;;5.20;99.90;;;;;;5057886;28;20039;-79
2021/01/01 10:11:13;;;;;;;34.08;16.88;;;5.20;99.90;;;;;;5066560;28;20020;-78
2021/01/01 10:13:39;;;;;;;32.25;16.02;;;5.30;99.90;;;;;;5060460;28;20064;-75
2021/01/01 10:16:09;;;;;;;30.52;15.38;;;5.30;99.90;;;;;;5066183;28;20066;-76
2021/01/01 10:18:35;;;;;;;32.22;16.27;;;5.30;99.90;;;;;;5057959;28;20036;-76
2021/01/01 10:21:02;;;;;;;31.10;16.30;;;5.30;99.90;;;;;;5051977;28;20431;-76
2021/01/01 10:23:27;;;;;;;31.05;16.70;;;5.20;99.90;;;;;;5063263;28;20540;-76
2021/01/01 10:25:56;;;;;;;30.00;15.77;;;5.20;99.90;;;;;;5049423;28;20041;-76
2021/01/01 10:28:22;;;;;;;31.80;16.77;;;5.10;99.90;;;;;;5051916;28;20033;-75
2021/01/01 10:30:47;;;;;;;30.10;15.98;;;5.10;99.90;;;;;;5059076;28;20036;-76
2021/01/01 10:33:13;;;;;;;30.20;16.23;;;5.10;99.90;;;;;;5052613;28;20029;-75
2021/01/01 10:35:38;;;;;;;33.45;17.17;;;5.10;99.90;;;;;;5052988;28;20036;-76
2021/01/01 10:38:04;;;;;;;32.53;17.67;;;5.10;99.90;;;;;;5057711;28;20020;-76
2021/01/01 10:40:30;;;;;;;28.67;15.65;;;5.20;99.90;;;;;;5055182;28;20021;-76
2021/01/01 10:42:57;;;;;;;30.15;15.73;;;5.20;99.90;;;;;;5058568;28;20088;-77
2021/01/01 10:45:22;;;;;;;30.17;15.57;;;5.20;99.90;;;;;;5056839;28;20120;-77
2021/01/01 10:47:48;;;;;;;33.00;16.42;;;5.30;99.90;;;;;;5065245;28;20153;-76
2021/01/01 10:50:14;;;;;;;29.65;16.00;;;5.20;99.90;;;;;;5053933;28;20032;-77
2021/01/01 10:52:40;;;;;;;34.00;16.50;;;5.20;99.90;;;;;;5052914;28;20032;-75
2021/01/01 10:55:06;;;;;;;31.90;16.65;;;5.20;99.90;;;;;;5067749;28;20024;-76
2021/01/01 10:57:31;;;;;;;37.40;16.60;;;5.10;99.90;;;;;;5055665;28;20074;-76
2021/01/01 10:59:57;;;;;;;37.92;17.00;;;5.20;99.90;;;;;;5050199;28;20047;-78
2021/01/01 11:02:22;;;;;;;36.45;17.65;;;5.20;99.90;;;;;;5053560;28;20047;-76
2021/01/01 11:04:48;;;;;;;33.35;17.58;;;5.20;99.90;;;;;;5063314;28;20146;-76
2021/01/01 11:07:13;;;;;;;31.67;17.08;;;5.20;99.90;;;;;;5052149;28;20029;-76
2021/01/01 11:09:39;;;;;;;31.05;16.33;;;5.20;99.90;;;;;;5058478;28;20029;-73
2021/01/01 11:12:05;;;;;;;31.15;16.52;;;5.20;99.90;;;;;;5058979;28;20028;-72
2021/01/01 12:22:57;;;;;;;28.75;15.38;;;5.30;99.90;;;;;;5054484;28;20028;-81
2021/01/01 12:25:23;;;;;;;28.40;15.43;;;5.30;99.90;;;;;;5060228;28;20033;-82
2021/01/01 12:27:50;;;;;;;30.17;15.20;;;5.30;99.90;;;;;;5056497;28;20036;-79
2021/01/01 12:30:17;;;;;;;28.75;14.88;;;5.30;99.90;;;;;;5054044;28;20443;-79
2021/01/01 12:32:44;;;;;;;29.05;15.18;;;5.20;99.90;;;;;;5055145;28;20040;-79
2021/01/01 12:35:11;;;;;;;25.48;13.80;;;5.30;99.90;;;;;;5057305;28;20060;-79
2021/01/01 12:37:38;;;;;;;27.20;14.32;;;5.30;99.90;;;;;;5056820;28;20058;-81
2021/01/01 12:40:05;;;;;;;22.48;12.20;;;5.30;99.90;;;;;;5054800;28;20025;-81
2021/01/01 12:42:30;;;;;;;25.15;13.85;;;5.30;99.90;;;;;;5058098;28;20025;-81
2021/01/01 12:44:56;;;;;;;27.15;13.68;;;5.20;99.90;;;;;;5057427;28;20379;-85
2021/01/01 12:47:21;;;;;;;27.85;14.00;;;5.30;99.90;;;;;;5057501;28;20029;-86
2021/01/01 12:49:47;;;;;;;24.55;12.88;;;5.40;99.90;;;;;;5057199;28;20455;-85
2021/01/01 12:52:13;;;;;;;25.67;13.10;;;5.40;99.90;;;;;;5054483;28;20024;-84
2021/01/01 12:54:39;;;;;;;24.67;13.10;;;5.50;99.90;;;;;;5058130;28;20043;-84
2021/01/01 12:57:05;;;;;;;26.25;14.18;;;5.50;99.90;;;;;;5056809;28;20432;-84
2021/01/01 12:59:30;;;;;;;29.23;13.23;;;5.60;99.90;;;;;;5056900;28;20044;-85
2021/01/01 13:01:56;;;;;;;24.77;13.65;;;5.60;99.90;;;;;;5058872;28;20021;-84
2021/01/01 13:04:21;;;;;;;26.38;14.27;;;5.60;99.90;;;;;;5058415;28;20877;-84
2021/01/01 13:06:47;;;;;;;29.73;14.55;;;5.60;99.90;;;;;;5056265;28;20075;-84
2021/01/01 13:09:12;;;;;;;24.52;13.57;;;5.50;99.90;;;;;;5057557;28;20070;-85
2021/01/01 13:11:45;;;;;;;25.70;13.23;;;5.50;99.90;;;;;;5053640;28;20025;-80
2021/01/01 13:14:11;;;;;;;29.42;13.38;;;5.60;99.90;;;;;;5053245;28;20032;-85
2021/01/01 13:16:37;;;;;;;23.40;12.48;;;5.60;99.90;;;;;;5056678;28;20170;-85
2021/01/01 13:19:03;;;;;;;22.30;12.07;;;5.60;99.90;;;;;;5058147;28;20504;-82
2021/01/01 13:21:33;;;;;;;23.05;12.00;;;5.60;99.90;;;;;;5055050;28;20048;-77
2021/01/01 13:24:00;;;;;;;23.85;13.20;;;5.70;99.90;;;;;;5056772;28;20096;-76
2021/01/01 13:26:27;;;;;;;23.20;12.35;;;5.60;99.90;;;;;;5055471;28;20132;-77
2021/01/01 13:28:54;;;;;;;21.67;11.43;;;5.70;99.90;;;;;;5049083;28;20393;-77
2021/01/01 13:31:20;;;;;;;25.17;12.48;;;5.60;99.90;;;;;;5054044;28;20060;-77
2021/01/01 13:33:46;;;;;;;21.55;12.18;;;5.70;99.90;;;;;;5062843;28;20021;-76
2021/01/01 13:36:17;;;;;;;23.17;12.18;;;5.60;99.90;;;;;;5058907;28;20084;-77
2021/01/01 13:38:42;;;;;;;23.17;12.10;;;5.50;99.90;;;;;;5057889;28;20472;-76
2021/01/01 13:41:13;;;;;;;25.40;12.68;;;5.50;99.90;;;;;;5057147;28;20036;-77
2021/01/01 13:43:41;;;;;;;26.85;13.32;;;5.50;99.90;;;;;;5055617;28;20040;-77
2021/01/01 13:46:07;;;;;;;25.70;12.18;;;5.40;99.90;;;;;;5061438;28;20016;-76